createdAt,value
2018-08-03T00:00:28.708Z,97195.47
2018-08-03T00:02:58.073Z,97171.63
2018-08-03T00:05:27.438Z,97215.51
2018-08-03T00:07:56.810Z,97204.25
2018-08-03T00:10:26.161Z,97198.77
2018-08-03T00:12:55.529Z,97201.58
2018-08-03T00:15:24.658Z,97374.92
2018-08-03T00:17:54.039Z,97172.17
2018-08-03T00:20:23.403Z,97178.39
2018-08-03T00:22:52.822Z,97181.78
2018-08-03T00:25:22.195Z,97118.75
2018-08-03T00:27:51.576Z,97165.03
2018-08-03T00:30:20.931Z,97186.89
2018-08-03T00:32:50.041Z,97171.02
2018-08-03T00:35:19.401Z,97178.30
2018-08-03T00:37:48.767Z,97170.70
2018-08-03T00:40:18.131Z,97157.48
2018-08-03T00:42:47.249Z,97178.86
2018-08-03T00:45:16.604Z,97168.36
2018-08-03T00:47:45.988Z,97168.67
2018-08-03T00:50:15.368Z,97152.75
2018-08-03T00:52:44.732Z,97188.75
2018-08-03T00:55:13.874Z,97157.77
2018-08-03T00:57:43.240Z,97167.84
2018-08-03T01:00:12.617Z,97167.25
2018-08-03T01:02:41.944Z,97164.16
2018-08-03T01:05:11.267Z,97174.22
2018-08-03T01:07:40.604Z,97144.44
2018-08-03T01:10:09.952Z,97182.04
2018-08-03T01:12:39.279Z,97178.37
2018-08-03T01:15:08.683Z,97175.98
2018-08-03T01:17:38.009Z,97199.20
2018-08-03T01:20:07.344Z,97185.73
2018-08-03T01:22:36.749Z,97162.40
2018-08-03T01:25:06.191Z,97189.84
2018-08-03T01:27:35.552Z,97168.78
2018-08-03T01:30:05.331Z,97211.86
2018-08-03T01:32:34.649Z,97194.09
2018-08-03T01:35:03.970Z,97064.43
2018-08-03T01:37:33.297Z,97180.42
2018-08-03T01:40:02.620Z,97160.19
2018-08-03T01:42:31.952Z,97183.50
2018-08-03T01:45:01.052Z,97188.52
2018-08-03T01:47:30.380Z,97172.38
2018-08-03T01:49:59.683Z,97180.61
2018-08-03T01:52:29.032Z,97045.64
2018-08-03T01:54:58.348Z,97199.45
2018-08-03T01:57:27.680Z,97158.45
2018-08-03T01:59:57.001Z,97196.87
2018-08-03T02:02:26.436Z,97188.86
2018-08-03T02:04:55.755Z,97184.25
2018-08-03T02:07:25.073Z,97268.40
2018-08-03T02:09:54.390Z,97171.48
2018-08-03T02:12:23.708Z,97183.51
2018-08-03T02:14:53.032Z,97162.58
2018-08-03T02:17:22.373Z,97157.86
2018-08-03T02:19:51.691Z,97172.55
2018-08-03T02:22:21.002Z,97185.11
2018-08-03T02:24:50.352Z,97158.37
2018-08-03T02:27:19.684Z,97275.80
2018-08-03T02:29:49.000Z,97177.27
2018-08-03T02:32:18.369Z,97170.16
2018-08-03T02:34:47.732Z,97184.77
2018-08-03T02:37:17.088Z,97170.98
2018-08-03T02:39:46.471Z,97177.66
2018-08-03T02:42:15.819Z,97182.09
2018-08-03T02:44:45.182Z,97176.56
2018-08-03T02:47:14.531Z,97155.70
2018-08-03T02:49:43.888Z,97150.25
2018-08-03T02:52:13.263Z,97167.29
2018-08-03T02:54:42.649Z,97165.23
2018-08-03T02:57:12.008Z,97188.52
2018-08-03T02:59:41.371Z,97173.01
2018-08-03T03:02:10.485Z,97138.02
2018-08-03T03:04:39.860Z,97195.70
2018-08-03T03:07:09.225Z,97175.42
2018-08-03T03:09:38.580Z,97183.70
2018-08-03T03:12:09.146Z,97197.98
2018-08-03T03:14:38.508Z,97166.69
2018-08-03T03:17:07.630Z,97222.61
2018-08-03T03:19:37.361Z,97216.69
2018-08-03T03:22:06.835Z,97186.28
2018-08-03T03:24:36.199Z,97174.45
2018-08-03T03:27:05.620Z,97182.33
2018-08-03T03:29:34.951Z,97178.58
2018-08-03T03:32:04.309Z,97214.48
2018-08-03T03:34:33.671Z,97261.37
2018-08-03T03:37:03.033Z,97178.89
2018-08-03T03:39:32.407Z,97190.69
2018-08-03T03:42:01.769Z,97163.91
2018-08-03T03:44:31.122Z,97175.98
2018-08-03T03:47:00.487Z,97174.14
2018-08-03T03:49:29.861Z,97187.66
2018-08-03T03:51:59.225Z,97175.98
2018-08-03T03:54:28.336Z,97195.55
2018-08-03T03:56:57.683Z,97190.92
2018-08-03T03:59:27.051Z,97190.84
2018-08-03T04:01:56.403Z,97212.83
2018-08-03T04:04:25.760Z,97184.30
2018-08-03T04:06:55.114Z,97185.25
2018-08-03T04:09:24.487Z,97185.67
2018-08-03T04:11:53.835Z,97194.83
2018-08-03T04:14:22.941Z,97188.55
2018-08-03T04:16:52.315Z,97185.36
2018-08-03T04:19:21.659Z,96968.18
2018-08-03T04:21:51.035Z,97189.58
2018-08-03T04:24:20.136Z,97189.58
2018-08-03T04:26:49.503Z,97184.26
2018-08-03T04:29:18.897Z,97184.08
2018-08-03T04:31:48.279Z,97191.97
2018-08-03T04:34:17.666Z,97181.16
2018-08-03T04:36:47.063Z,97167.28
2018-08-03T04:39:16.448Z,97181.75
2018-08-03T04:41:45.848Z,97189.73
2018-08-03T04:44:14.967Z,97183.38
2018-08-03T04:46:44.343Z,97201.95
2018-08-03T04:49:13.733Z,97237.16
2018-08-03T04:51:42.866Z,97208.45
2018-08-03T04:54:12.255Z,97200.55
2018-08-03T04:56:41.662Z,97177.37
2018-08-03T04:59:11.038Z,97209.75
2018-08-03T05:01:40.168Z,97189.63
2018-08-03T05:04:09.655Z,97182.27
2018-08-03T05:06:39.065Z,97217.81
2018-08-03T05:09:08.775Z,97183.77
2018-08-03T05:11:38.193Z,97194.09
2018-08-03T05:14:08.802Z,97223.88
2018-08-03T05:16:38.191Z,97227.69
2018-08-03T05:19:07.670Z,97207.98
2018-08-03T05:21:37.090Z,97211.87
2018-08-03T05:24:06.491Z,97098.16
2018-08-03T05:26:35.867Z,97187.00
2018-08-03T05:29:05.343Z,97204.47
2018-08-03T05:31:34.715Z,97190.06
2018-08-03T05:34:04.084Z,97187.27
2018-08-03T05:36:33.452Z,97351.25
2018-08-03T05:39:02.947Z,97215.61
2018-08-03T05:41:32.327Z,97213.28
2018-08-03T05:44:01.693Z,97217.88
2018-08-03T05:46:31.064Z,97220.43
2018-08-03T05:49:00.449Z,97222.98
2018-08-03T05:51:29.828Z,97218.39
2018-08-03T05:53:59.195Z,97187.13
2018-08-03T05:56:28.754Z,97231.98
2018-08-03T05:58:58.129Z,97201.80
2018-08-03T06:01:27.251Z,97190.13
2018-08-03T06:03:56.671Z,97211.19
2018-08-03T06:06:25.753Z,97226.88
2018-08-03T06:08:55.114Z,97223.17
2018-08-03T06:11:24.498Z,97185.45
2018-08-03T06:13:53.866Z,97151.40
2018-08-03T06:16:23.206Z,97201.56
2018-08-03T06:18:52.579Z,97200.25
2018-08-03T06:21:21.959Z,97233.21
2018-08-03T06:23:51.323Z,97198.72
2018-08-03T06:26:20.435Z,97366.22
2018-08-03T06:28:49.850Z,97187.20
2018-08-03T06:31:19.246Z,97255.90
2018-08-03T06:33:49.091Z,97247.05
2018-08-03T06:36:18.565Z,97226.20
2018-08-03T06:38:47.967Z,97219.45
2018-08-03T06:41:17.364Z,97217.73
2018-08-03T06:43:46.770Z,97193.09
2018-08-03T06:46:16.154Z,97186.36
2018-08-03T06:48:45.282Z,97204.75
2018-08-03T06:51:14.677Z,97191.67
2018-08-03T06:53:44.164Z,97197.40
2018-08-03T06:56:13.498Z,97189.02
2018-08-03T06:58:42.903Z,97221.92
2018-08-03T07:01:12.275Z,97225.17
2018-08-03T07:03:41.674Z,97204.13
2018-08-03T07:06:11.062Z,97218.42
2018-08-03T07:08:40.215Z,97231.19
2018-08-03T07:11:09.712Z,97192.36
2018-08-03T07:13:39.107Z,97177.49
2018-08-03T07:16:09.475Z,97249.90
2018-08-03T07:18:38.866Z,97187.25
2018-08-03T07:21:08.288Z,97208.01
2018-08-03T07:23:37.695Z,97218.13
2018-08-03T07:26:06.862Z,97206.66
2018-08-03T07:28:36.244Z,97183.24
2018-08-03T07:31:05.597Z,97182.86
2018-08-03T07:33:34.716Z,97185.58
2018-08-03T07:36:04.082Z,97161.56
2018-08-03T07:38:33.470Z,97265.06
2018-08-03T07:41:02.815Z,97184.92
2018-08-03T07:43:32.277Z,97204.84
2018-08-03T07:46:01.564Z,97187.05
2018-08-03T07:48:30.959Z,97167.39
2018-08-03T07:51:00.316Z,97192.47
2018-08-03T07:53:29.803Z,97231.16
2018-08-03T07:55:58.964Z,97306.68
2018-08-03T07:58:28.381Z,97203.20
2018-08-03T08:00:57.822Z,97237.52
2018-08-03T08:03:27.191Z,97216.80
2018-08-03T08:05:56.570Z,97192.16
2018-08-03T08:08:26.151Z,97162.30
2018-08-03T08:10:55.527Z,97221.33
2018-08-03T08:13:24.924Z,97203.03
2018-08-03T08:15:54.038Z,97179.62
2018-08-03T08:18:23.418Z,97268.25
2018-08-03T08:20:52.790Z,97225.22
2018-08-03T08:23:22.177Z,97107.88
2018-08-03T08:25:51.534Z,97113.90
2018-08-03T08:28:20.926Z,97112.02
2018-08-03T08:30:50.078Z,97174.49
2018-08-03T08:33:19.470Z,97114.97
2018-08-03T08:35:48.880Z,97152.10
2018-08-03T08:38:18.285Z,97169.10
2018-08-03T08:40:47.710Z,97152.88
2018-08-03T08:43:17.128Z,97160.00
2018-08-03T08:45:46.514Z,97173.28
2018-08-03T08:48:15.918Z,97169.92
2018-08-03T08:50:45.306Z,97154.58
2018-08-03T08:53:14.733Z,97190.92
2018-08-03T08:55:44.112Z,97155.94
2018-08-03T08:58:13.487Z,97206.95
2018-08-03T09:00:42.873Z,97218.63
2018-08-03T09:03:12.267Z,97110.39
2018-08-03T09:05:41.683Z,97232.83
2018-08-03T09:08:11.111Z,97132.39
2018-08-03T09:10:40.511Z,97147.32
2018-08-03T09:13:09.959Z,97158.71
2018-08-03T09:15:39.287Z,97163.70
2018-08-03T09:18:09.220Z,97181.87
2018-08-03T09:20:38.719Z,97174.86
2018-08-03T09:23:08.131Z,97058.97
2018-08-03T09:25:37.532Z,97164.28
2018-08-03T09:28:07.290Z,97163.76
2018-08-03T09:30:36.703Z,97156.50
2018-08-03T09:33:06.179Z,97160.84
2018-08-03T09:35:35.600Z,97161.91
2018-08-03T09:38:05.021Z,97231.69
2018-08-03T09:40:34.422Z,97163.25
2018-08-03T09:43:03.883Z,97150.52
2018-08-03T09:45:33.283Z,97149.43
2018-08-03T09:48:02.675Z,97156.75
2018-08-03T09:50:32.071Z,97123.61
2018-08-03T09:53:01.478Z,97159.70
2018-08-03T09:55:30.871Z,97136.59
2018-08-03T09:58:00.262Z,97020.22
2018-08-03T10:00:34.880Z,97191.73
2018-08-03T10:03:04.266Z,97131.11
2018-08-03T10:05:33.678Z,97131.02
2018-08-03T10:08:03.070Z,97104.20
2018-08-03T10:10:32.466Z,97117.88
2018-08-03T10:13:01.872Z,97122.48
2018-08-03T10:15:31.291Z,97123.02
2018-08-03T10:18:00.689Z,97112.70
2018-08-03T10:20:30.082Z,97107.58
2018-08-03T10:22:59.489Z,97135.83
2018-08-03T10:25:28.880Z,97133.37
2018-08-03T10:27:58.307Z,97156.66
2018-08-03T10:30:27.688Z,97108.58
2018-08-03T10:32:57.104Z,97128.66
2018-08-03T10:35:26.487Z,97013.45
2018-08-03T10:37:55.887Z,97094.17
2018-08-03T10:40:25.035Z,97116.67
2018-08-03T10:42:54.522Z,97093.61
2018-08-03T10:45:23.815Z,97111.34
2018-08-03T10:47:53.231Z,97114.94
2018-08-03T10:50:22.707Z,96991.94
2018-08-03T10:52:52.103Z,97055.11
2018-08-03T10:55:21.509Z,97097.76
2018-08-03T10:57:50.906Z,97143.08
2018-08-03T11:00:28.750Z,97099.16
2018-08-03T11:02:58.639Z,97115.66
2018-08-03T11:05:28.642Z,97082.02
2018-08-03T11:07:58.116Z,97066.48
2018-08-03T11:10:27.499Z,96954.48
2018-08-03T11:12:56.914Z,97057.66
2018-08-03T11:15:26.291Z,97071.58
2018-08-03T11:17:55.685Z,97041.14
2018-08-03T11:20:25.072Z,97120.35
2018-08-03T11:22:54.466Z,97065.66
2018-08-03T11:25:23.860Z,97056.69
2018-08-03T11:27:53.271Z,97041.47
2018-08-03T11:30:22.703Z,97041.38
2018-08-03T11:32:52.100Z,97071.33
2018-08-03T11:35:21.474Z,97072.39
2018-08-03T11:37:50.882Z,97051.28
2018-08-03T11:40:20.268Z,97025.54
2018-08-03T11:42:50.474Z,97049.38
2018-08-03T11:45:19.875Z,97037.81
2018-08-03T11:47:48.998Z,97116.47
2018-08-03T11:50:18.387Z,97073.31
2018-08-03T11:52:47.803Z,97062.95
2018-08-03T11:55:17.179Z,97025.58
2018-08-03T11:57:46.307Z,97052.33
2018-08-03T12:00:15.699Z,97022.15
2018-08-03T12:02:45.102Z,97037.94
2018-08-03T12:05:14.488Z,97016.02
2018-08-03T12:07:43.888Z,97024.33
2018-08-03T12:10:13.268Z,97004.85
2018-08-03T12:12:42.402Z,97020.50
2018-08-03T12:15:11.772Z,97021.37
2018-08-03T12:17:40.900Z,97010.57
2018-08-03T12:20:10.500Z,97014.34
2018-08-03T12:22:39.921Z,97017.34
2018-08-03T12:25:09.315Z,97005.39
2018-08-03T12:27:38.691Z,97005.97
2018-08-03T12:30:09.036Z,96996.84
2018-08-03T12:32:38.391Z,96998.45
2018-08-03T12:35:07.760Z,97000.00
2018-08-03T12:37:37.115Z,96997.64
2018-08-03T12:40:06.494Z,96987.12
2018-08-03T12:42:35.879Z,96999.13
2018-08-03T12:45:05.503Z,96985.61
2018-08-03T12:47:34.880Z,96988.39
2018-08-03T12:50:04.358Z,97007.94
2018-08-03T12:52:33.770Z,96996.11
2018-08-03T12:55:03.079Z,96938.00
2018-08-03T12:57:32.454Z,96977.86
2018-08-03T13:00:01.831Z,96993.83
2018-08-03T13:02:31.216Z,97111.50
2018-08-03T13:05:00.591Z,96956.92
2018-08-03T13:07:29.995Z,96984.39
2018-08-03T13:09:59.296Z,96982.22
2018-08-03T13:12:28.638Z,96987.07
2018-08-03T13:14:58.059Z,96958.42
2018-08-03T13:17:27.351Z,96980.13
2018-08-03T13:19:56.490Z,96969.38
2018-08-03T13:22:25.847Z,97014.77
2018-08-03T13:24:55.224Z,96978.75
2018-08-03T13:27:24.656Z,96968.50
2018-08-03T13:29:53.986Z,96952.86
2018-08-03T13:32:23.344Z,96961.88
2018-08-03T13:34:52.512Z,96964.45
2018-08-03T13:37:21.859Z,96966.03
2018-08-03T13:39:51.347Z,96962.08
2018-08-03T13:42:22.792Z,96954.47
2018-08-03T13:44:52.179Z,96924.70
2018-08-03T13:47:21.601Z,96915.62
2018-08-03T13:49:51.015Z,96944.41
2018-08-03T13:52:20.343Z,96928.77
2018-08-03T13:54:49.751Z,97012.92
2018-08-03T13:57:19.110Z,96923.19
2018-08-03T13:59:48.227Z,96922.11
2018-08-03T14:02:27.318Z,96947.13
2018-08-03T14:04:56.962Z,96900.63
2018-08-03T14:07:27.399Z,96961.94
2018-08-03T14:09:56.755Z,96889.44
2018-08-03T14:12:26.089Z,96897.52
2018-08-03T14:14:55.438Z,96883.41
2018-08-03T14:17:24.836Z,96911.55
2018-08-03T14:19:54.187Z,96884.55
2018-08-03T14:22:23.632Z,96830.43
2018-08-03T14:24:53.000Z,96917.39
2018-08-03T14:27:22.423Z,96954.29
2018-08-03T14:29:51.855Z,96965.14
2018-08-03T14:32:21.273Z,96877.19
2018-08-03T14:34:50.663Z,96874.71
2018-08-03T14:37:20.090Z,96888.17
2018-08-03T14:39:49.491Z,96847.70
2018-08-03T14:42:18.910Z,96880.77
2018-08-03T14:44:48.076Z,96888.75
2018-08-03T14:47:17.512Z,96888.67
2018-08-03T14:49:46.959Z,96882.11
2018-08-03T14:52:16.369Z,96872.64
2018-08-03T14:54:45.817Z,96883.02
2018-08-03T14:57:14.986Z,96907.33
2018-08-03T14:59:44.379Z,96829.28
2018-08-03T15:02:13.792Z,96854.28
2018-08-03T15:04:43.179Z,96856.40
2018-08-03T15:07:12.566Z,96888.67
2018-08-03T15:09:41.954Z,96886.81
2018-08-03T15:12:11.379Z,96907.27
2018-08-03T15:14:40.773Z,96888.35
2018-08-03T15:17:10.192Z,96842.64
2018-08-03T15:19:39.639Z,96873.27
2018-08-03T15:22:09.551Z,96864.64
2018-08-03T15:24:38.975Z,96847.22
2018-08-03T15:27:08.464Z,96838.80
2018-08-03T15:29:37.907Z,96860.64
2018-08-03T15:32:07.307Z,96827.69
2018-08-03T15:34:36.704Z,96866.20
2018-08-03T15:37:06.095Z,96851.41
2018-08-03T15:39:35.493Z,96845.27
2018-08-03T15:42:04.883Z,96794.93
2018-08-03T15:44:34.317Z,96865.02
2018-08-03T15:47:04.104Z,96828.12
2018-08-03T15:49:33.524Z,96819.85
2018-08-03T15:52:02.939Z,96863.22
2018-08-03T15:54:32.319Z,96823.75
2018-08-03T15:57:01.683Z,96832.41
2018-08-03T15:59:30.778Z,96847.11
2018-08-03T16:01:59.881Z,96771.82
2018-08-03T16:04:29.243Z,96852.72
2018-08-03T16:06:58.634Z,96866.14
2018-08-03T16:09:27.990Z,96839.23
2018-08-03T16:11:57.355Z,96808.47
2018-08-03T16:14:26.691Z,96812.77
2018-08-03T16:16:56.048Z,96852.15
2018-08-03T16:19:25.425Z,96842.80
2018-08-03T16:21:54.791Z,96827.59
2018-08-03T16:24:24.145Z,96801.64
2018-08-03T16:26:53.498Z,96789.63
2018-08-03T16:29:22.862Z,96798.72
2018-08-03T16:31:52.219Z,96797.25
2018-08-03T16:34:21.572Z,96751.53
2018-08-03T16:36:50.948Z,96803.67
2018-08-03T16:39:20.300Z,96800.77
2018-08-03T16:41:49.667Z,96795.45
2018-08-03T16:44:19.040Z,96801.06
2018-08-03T16:46:48.408Z,96789.20
2018-08-03T16:49:17.764Z,96798.16
2018-08-03T16:51:47.106Z,96791.83
2018-08-03T16:54:16.216Z,96773.62
2018-08-03T16:56:45.607Z,96780.16
2018-08-03T16:59:14.964Z,96794.22
2018-08-03T17:01:44.323Z,96832.55
2018-08-03T17:04:13.663Z,96821.63
2018-08-03T17:06:43.009Z,96841.34
2018-08-03T17:09:12.366Z,96798.50
2018-08-03T17:54:19.853Z,96782.86
2018-08-03T17:56:49.238Z,96772.34
2018-08-03T17:59:18.598Z,96785.03
2018-08-03T18:01:47.963Z,96769.36
2018-08-03T18:04:17.326Z,96678.23
2018-08-03T18:06:46.699Z,96775.19
2018-08-03T18:09:16.075Z,96779.44
2018-08-03T18:11:45.184Z,96794.47
2018-08-03T18:14:14.290Z,96792.77
2018-08-03T18:16:43.655Z,96806.39
2018-08-03T18:19:13.014Z,96785.78
2018-08-03T18:21:42.387Z,96798.55
2018-08-03T18:24:11.491Z,96678.12
2018-08-03T18:26:40.835Z,96786.95
2018-08-03T18:29:10.265Z,96765.56
2018-08-03T18:31:39.559Z,96805.67
2018-08-03T18:34:08.952Z,96830.55
2018-08-03T18:36:38.313Z,96827.12
2018-08-03T18:39:10.054Z,96808.78
2018-08-03T18:41:39.505Z,96811.65
2018-08-03T18:44:08.923Z,96816.28
2018-08-03T18:46:38.275Z,96810.27
2018-08-03T18:49:07.747Z,96813.67
2018-08-03T18:51:37.111Z,96819.24
2018-08-03T18:54:06.562Z,96780.22
2018-08-03T18:56:35.930Z,96809.66
2018-08-03T18:59:05.589Z,96809.72
2018-08-03T19:01:34.956Z,96809.13
2018-08-03T19:04:04.086Z,96827.17
2018-08-03T19:06:33.451Z,96831.34
2018-08-03T19:09:02.560Z,96831.88
2018-08-03T19:11:31.922Z,96838.13
2018-08-03T19:14:01.298Z,96832.04
2018-08-03T19:16:30.662Z,96858.58
2018-08-03T19:19:00.039Z,96871.98
2018-08-03T19:21:29.394Z,96782.52
2018-08-03T19:23:58.895Z,96855.67
2018-08-03T19:26:28.278Z,96860.31
2018-08-03T19:28:57.672Z,96935.17
2018-08-03T19:31:26.787Z,96943.88
2018-08-03T19:33:56.160Z,96922.70
2018-08-03T19:36:25.525Z,96909.97
2018-08-03T19:38:54.893Z,96876.63
2018-08-03T19:41:24.256Z,96903.69
2018-08-03T19:43:53.718Z,96970.66
2018-08-03T19:46:23.092Z,96879.77
2018-08-03T19:48:52.597Z,96878.67
2018-08-03T19:51:21.958Z,96885.36
2018-08-03T19:53:51.330Z,96840.87
2018-08-03T19:56:20.683Z,96905.00
2018-08-03T19:58:49.930Z,96829.78
2018-08-03T20:01:19.187Z,96869.45
2018-08-03T20:03:48.916Z,96897.88
2018-08-03T20:06:18.514Z,96894.96
2018-08-03T20:08:47.900Z,96834.33
2018-08-03T20:11:17.030Z,96859.73
2018-08-03T20:13:46.493Z,96884.56
2018-08-03T20:16:15.776Z,96819.70
2018-08-03T20:18:45.148Z,96853.93
2018-08-03T20:21:14.511Z,96787.73
2018-08-03T20:23:43.886Z,96802.62
2018-08-03T20:26:13.243Z,96803.11
2018-08-03T20:28:42.656Z,96961.06
2018-08-03T20:31:12.068Z,96951.83
2018-08-03T20:33:41.455Z,96805.97
2018-08-03T20:36:10.855Z,96943.79
2018-08-03T20:38:40.243Z,96885.34
2018-08-03T20:41:09.686Z,96931.50
2018-08-03T20:43:39.034Z,96937.61
2018-08-03T20:46:08.738Z,96927.23
2018-08-03T20:48:38.126Z,96896.03
2018-08-03T20:51:07.515Z,96864.07
2018-08-03T20:53:36.902Z,96968.70
2018-08-03T20:56:06.410Z,96852.23
2018-08-03T20:58:35.806Z,96882.42
2018-08-03T21:01:05.210Z,96873.19
2018-08-03T21:03:34.606Z,96828.13
2018-08-03T21:06:04.179Z,96867.73
2018-08-03T21:08:33.594Z,96858.22
2018-08-03T21:11:03.004Z,96849.06
2018-08-03T21:13:32.390Z,96853.55
2018-08-03T21:16:01.789Z,96869.39
2018-08-03T21:18:31.195Z,96876.97
2018-08-03T21:21:00.595Z,96857.03
2018-08-03T21:23:29.994Z,96842.83
2018-08-03T21:25:59.403Z,96883.72
2018-08-03T21:28:28.784Z,96874.66
2018-08-03T21:30:58.159Z,96864.87
2018-08-03T21:33:27.272Z,96883.33
2018-08-03T21:35:56.638Z,96916.82
2018-08-03T21:38:25.998Z,96891.30
2018-08-03T21:40:55.368Z,96920.83
2018-08-03T21:43:24.728Z,96919.03
2018-08-03T21:45:54.088Z,96882.41
2018-08-03T21:48:23.456Z,96823.09
2018-08-03T21:50:52.810Z,96853.33
2018-08-03T21:53:22.174Z,96831.73
2018-08-03T21:55:51.294Z,96847.11
2018-08-03T21:58:20.670Z,96862.42
2018-08-03T22:00:50.044Z,96771.98
2018-08-03T22:03:19.394Z,96868.52
2018-08-03T22:05:48.755Z,96825.50
2018-08-03T22:08:18.126Z,96672.09
2018-08-03T22:10:47.498Z,96840.98
2018-08-03T22:13:16.874Z,96869.19
2018-08-03T22:15:46.007Z,96854.02
2018-08-03T22:18:15.388Z,96836.90
2018-08-03T22:20:44.763Z,96853.69
2018-08-03T22:23:14.129Z,96815.12
2018-08-03T22:25:43.487Z,96842.69
2018-08-03T22:28:12.622Z,96865.83
2018-08-03T22:30:42.011Z,96860.54
2018-08-03T22:33:11.423Z,96859.78
2018-08-03T22:35:40.870Z,96843.79
2018-08-03T22:38:10.274Z,96864.09
2018-08-03T22:40:39.678Z,96963.16
2018-08-03T22:43:09.164Z,96890.63
2018-08-03T22:45:38.612Z,96864.39
2018-08-03T22:48:08.050Z,96862.84
2018-08-03T22:50:37.831Z,96832.32
2018-08-03T22:53:07.312Z,96878.96
2018-08-03T22:55:36.443Z,96771.00
2018-08-03T22:58:05.923Z,96843.00
2018-08-03T23:00:35.051Z,96847.61
2018-08-03T23:03:04.414Z,96866.67
2018-08-03T23:05:33.810Z,96886.27
2018-08-03T23:08:02.958Z,97032.88
2018-08-03T23:10:32.286Z,96873.16
2018-08-03T23:13:01.655Z,96861.44
2018-08-03T23:15:31.044Z,96848.42
2018-08-03T23:18:00.412Z,96833.13
2018-08-03T23:20:29.526Z,97545.06
2018-08-03T23:22:58.907Z,96862.38
2018-08-03T23:25:28.022Z,96858.46
2018-08-03T23:27:57.742Z,96873.77
2018-08-03T23:30:27.110Z,96880.30
2018-08-03T23:32:56.234Z,96902.98
2018-08-03T23:35:25.654Z,96868.67
2018-08-03T23:37:55.021Z,96850.48
2018-08-03T23:40:24.130Z,96860.39
2018-08-03T23:42:53.516Z,96837.18
2018-08-03T23:45:22.635Z,96974.05
2018-08-03T23:47:52.014Z,96877.93
2018-08-03T23:50:21.126Z,96846.53
2018-08-03T23:52:50.558Z,96861.72
2018-08-03T23:55:19.930Z,96852.04
2018-08-03T23:57:49.299Z,96844.59
